Time;durP1;ratioP1;P1;durP2;ratioP2;P2;SDS_P1;SDS_P2;PMS_P1;PMS_P2;Temp;Humidity;BMP_temperature;BMP_pressure;BME280_temperature;BME280_humidity;BME280_pressure;Samples;Min_cycle;Max_cycle;Signal;HPM_P1;HPM_P2
2022/10/24 00:00:58;;;;;;;;;;;15.50;91.50;;;;;;5052982;28;19979;-87
2022/10/24 00:03:24;;;;;;;;;;;15.50;91.70;;;;;;5053043;28;19983;-88
2022/10/24 00:05:50;;;;;;;;;;;15.40;91.90;;;;;;5052995;28;19938;-87
2022/10/24 00:08:16;;;;;;;;;;;15.30;91.50;;;;;;5053016;28;20375;-87
2022/10/24 00:10:45;;;;;;;;;;;15.30;91.30;;;;;;5053207;28;20040;-87
2022/10/24 00:13:12;;;;;;;;;;;15.10;90.60;;;;;;5052901;28;20319;-87
2022/10/24 00:15:38;;;;;;;;;;;14.90;91.00;;;;;;5053137;28;19967;-88
2022/10/24 00:18:04;;;;;;;;;;;14.90;91.20;;;;;;5052893;28;20362;-87
2022/10/24 00:20:29;;;;;;;;;;;15.00;91.50;;;;;;5062686;28;19944;-88
2022/10/24 00:22:55;;;;;;;;;;;15.00;91.50;;;;;;5072814;28;19942;-87
2022/10/24 00:25:20;;;;;;;;;;;15.10;91.30;;;;;;5072956;28;19993;-87
2022/10/24 00:27:46;;;;;;;;;;;15.10;91.20;;;;;;5074623;28;19963;-87
2022/10/24 00:30:11;;;;;;;;;;;15.00;91.40;;;;;;5076688;28;19978;-87
2022/10/24 00:32:37;;;;;;;;;;;15.00;91.70;;;;;;5076786;28;19942;-87
2022/10/24 00:35:03;;;;;;;;;;;15.10;92.00;;;;;;5076676;28;20384;-87
2022/10/24 00:37:29;;;;;;;;;;;15.10;92.00;;;;;;5076642;28;19936;-87
2022/10/24 00:39:54;;;;;;;;;;;15.20;92.10;;;;;;5076553;28;19942;-88
2022/10/24 00:42:20;;;;;;;;;;;15.10;92.00;;;;;;5076561;28;20393;-87
2022/10/24 00:44:46;;;;;;;;;;;15.20;91.80;;;;;;5076497;28;19942;-87
2022/10/24 00:47:11;;;;;;;;;;;15.20;91.80;;;;;;5076414;28;20011;-87
2022/10/24 00:49:59;;;;;;;;;;;15.20;91.80;;;;;;5073480;28;19999;-87
2022/10/24 00:52:33;;;;;;;;;;;15.20;91.90;;;;;;5054848;28;19967;-87
2022/10/24 00:55:00;;;;;;;;;;;15.20;91.80;;;;;;5056307;28;20037;-87
2022/10/24 00:57:28;;;;;;;;;;;15.20;91.60;;;;;;5056610;28;20015;-87
2022/10/24 00:59:57;;;;;;;;;;;15.20;91.70;;;;;;5056129;28;19984;-87
2022/10/24 01:02:22;;;;;;;;;;;15.10;91.70;;;;;;5056187;28;19950;-88
2022/10/24 01:04:48;;;;;;;;;;;15.20;91.60;;;;;;5056511;28;19940;-87
2022/10/24 01:07:18;;;;;;;;;;;15.20;91.80;;;;;;5060882;28;19957;-87
2022/10/24 01:09:55;;;;;;;;;;;15.30;91.60;;;;;;5076363;28;19984;-87
2022/10/24 01:12:29;;;;;;;;;;;15.30;91.30;;;;;;5076000;28;19937;-87
2022/10/24 01:15:15;;;;;;;;;;;15.30;91.30;;;;;;5075993;28;20385;-87
2022/10/24 01:17:51;;;;;;;;;;;15.20;91.40;;;;;;5075291;28;19943;-87
2022/10/24 01:20:16;;;;;;;;;;;15.20;91.60;;;;;;5067752;28;19990;-87
2022/10/24 01:22:57;;;;;;;;;;;15.30;91.80;;;;;;5055801;28;19985;-87
2022/10/24 01:25:25;;;;;;;;;;;15.30;91.70;;;;;;5055772;28;19946;-87
2022/10/24 01:28:01;;;;;;;;;;;15.20;91.60;;;;;;5055599;28;19963;-87
2022/10/24 01:30:28;;;;;;;;;;;15.10;91.60;;;;;;5055530;28;20027;-87
2022/10/24 01:33:03;;;;;;;;;;;15.10;91.90;;;;;;5056705;28;19949;-87
2022/10/24 01:35:50;;;;;;;;;;;15.10;92.10;;;;;;5055583;28;19942;-87
2022/10/24 01:38:21;;;;;;;;;;;15.20;92.30;;;;;;5054789;28;19941;-87
2022/10/24 01:40:50;;;;;;;;;;;15.30;92.70;;;;;;5055070;28;20041;-88
2022/10/24 01:43:18;;;;;;;;;;;15.40;92.80;;;;;;5054131;28;19941;-87
2022/10/24 01:45:45;;;;;;;;;;;15.40;92.80;;;;;;5055350;28;19942;-88
2022/10/24 01:48:13;;;;;;;;;;;15.50;92.60;;;;;;5055554;28;20008;-88
2022/10/24 01:50:39;;;;;;;;;;;15.60;92.40;;;;;;5065877;28;19967;-87
2022/10/24 01:53:06;;;;;;;;;;;15.60;92.20;;;;;;5075171;28;20023;-87
2022/10/24 01:55:31;;;;;;;;;;;15.60;91.80;;;;;;5075439;28;20105;-87
2022/10/24 01:57:58;;;;;;;;;;;15.60;91.60;;;;;;5075434;28;20422;-87
2022/10/24 02:00:23;;;;;;;;;;;15.60;91.60;;;;;;5075390;28;19939;-87
2022/10/24 02:02:54;;;;;;;;;;;15.60;91.60;;;;;;5075140;28;20306;-87
2022/10/24 02:05:35;;;;;;;;;;;15.70;91.50;;;;;;5074963;28;19948;-87
2022/10/24 02:08:03;;;;;;;;;;;15.60;91.60;;;;;;5074874;28;20003;-87
2022/10/24 02:10:31;;;;;;;;;;;15.70;91.70;;;;;;5074224;28;19946;-87
2022/10/24 02:13:02;;;;;;;;;;;15.70;91.80;;;;;;5057081;28;19945;-87
2022/10/24 02:15:29;;;;;;;;;;;15.60;91.90;;;;;;5074920;28;19941;-87
2022/10/24 02:17:56;;;;;;;;;;;15.70;92.00;;;;;;5074820;28;19939;-88
2022/10/24 02:20:26;;;;;;;;;;;15.70;92.00;;;;;;5074761;28;19948;-87
2022/10/24 02:22:57;;;;;;;;;;;15.70;92.00;;;;;;5074676;28;19942;-87
2022/10/24 02:25:25;;;;;;;;;;;15.80;91.90;;;;;;5074631;28;19984;-87
2022/10/24 02:28:02;;;;;;;;;;;15.80;91.90;;;;;;5074525;28;20052;-87
2022/10/24 02:30:28;;;;;;;;;;;15.80;91.90;;;;;;5074384;28;19976;-87
2022/10/24 02:32:56;;;;;;;;;;;15.80;92.00;;;;;;5074403;28;19948;-87
2022/10/24 02:35:27;;;;;;;;;;;15.90;92.20;;;;;;5074404;28;19990;-87
2022/10/24 02:37:56;;;;;;;;;;;15.90;92.30;;;;;;5074396;28;19946;-87
2022/10/24 02:40:22;;;;;;;;;;;15.90;92.40;;;;;;5060535;28;19955;-87
2022/10/24 02:42:50;;;;;;;;;;;16.00;92.40;;;;;;5054267;28;20039;-87
2022/10/24 02:45:16;;;;;;;;;;;16.00;92.40;;;;;;5053013;28;19942;-87
2022/10/24 02:47:43;;;;;;;;;;;16.10;92.40;;;;;;5054152;28;19982;-87
2022/10/24 02:50:09;;;;;;;;;;;16.10;92.50;;;;;;5053922;28;20009;-88
2022/10/24 02:52:36;;;;;;;;;;;16.30;92.40;;;;;;5054181;28;19959;-88
2022/10/24 02:55:02;;;;;;;;;;;16.20;92.30;;;;;;5053979;28;20315;-88
2022/10/24 02:57:27;;;;;;;;;;;16.30;92.30;;;;;;5054046;28;19945;-87
2022/10/24 02:59:53;;;;;;;;;;;16.30;92.20;;;;;;5054214;28;19941;-87
2022/10/24 03:02:18;;;;;;;;;;;16.30;92.10;;;;;;5054059;28;19964;-87
2022/10/24 03:04:44;;;;;;;;;;;16.40;91.90;;;;;;5053915;28;20360;-87
2022/10/24 03:07:10;;;;;;;;;;;16.40;91.70;;;;;;5035887;28;20023;-87
2022/10/24 03:09:35;;;;;;;;;;;16.50;91.50;;;;;;5060706;28;19941;-87
2022/10/24 03:12:01;;;;;;;;;;;16.50;91.50;;;;;;5073782;28;19987;-87
2022/10/24 03:14:27;;;;;;;;;;;16.50;91.40;;;;;;5073705;28;19969;-88
2022/10/24 03:16:52;;;;;;;;;;;16.50;91.50;;;;;;5073689;28;20433;-87
2022/10/24 03:19:18;;;;;;;;;;;16.60;91.40;;;;;;5073617;28;19992;-87
2022/10/24 03:21:44;;;;;;;;;;;16.60;91.30;;;;;;5073561;28;20315;-87
2022/10/24 03:24:10;;;;;;;;;;;16.60;91.20;;;;;;5073505;28;20015;-87
2022/10/24 03:26:35;;;;;;;;;;;16.60;91.00;;;;;;5073467;28;19962;-87
2022/10/24 03:29:01;;;;;;;;;;;16.60;90.90;;;;;;5073397;28;19979;-87
2022/10/24 03:31:26;;;;;;;;;;;16.60;90.80;;;;;;5073698;28;20428;-87
2022/10/24 03:33:52;;;;;;;;;;;16.60;90.70;;;;;;5055456;28;19944;-87
2022/10/24 03:36:17;;;;;;;;;;;16.60;90.70;;;;;;5073368;28;19965;-87
2022/10/24 03:38:43;;;;;;;;;;;16.60;90.70;;;;;;5071278;28;20409;-87
2022/10/24 03:41:09;;;;;;;;;;;16.60;90.70;;;;;;5053351;28;19948;-87
2022/10/24 03:43:34;;;;;;;;;;;16.70;90.50;;;;;;5053216;28;19975;-87
2022/10/24 03:46:00;;;;;;;;;;;16.70;90.40;;;;;;5053137;28;19950;-87
2022/10/24 03:48:26;;;;;;;;;;;16.70;90.40;;;;;;5053215;28;20004;-87
2022/10/24 03:50:51;;;;;;;;;;;16.70;90.20;;;;;;5053057;28;19939;-87
2022/10/24 03:53:17;;;;;;;;;;;16.70;90.10;;;;;;5053108;28;19936;-87
2022/10/24 03:55:42;;;;;;;;;;;16.70;90.00;;;;;;5052998;28;19942;-86
2022/10/24 03:58:08;;;;;;;;;;;16.80;89.80;;;;;;5053137;28;19940;-86
2022/10/24 04:00:38;;;;;;;;;;;16.80;89.60;;;;;;5053075;28;19970;-87
2022/10/24 04:03:04;;;;;;;;;;;16.80;89.60;;;;;;5052694;28;19943;-87
2022/10/24 04:05:29;;;;;;;;;;;16.70;89.60;;;;;;5052992;28;20389;-87
2022/10/24 04:07:55;;;;;;;;;;;16.70;89.70;;;;;;5053200;28;19961;-87
2022/10/24 04:10:20;;;;;;;;;;;16.80;89.60;;;;;;5053775;28;19971;-87
2022/10/24 04:12:46;;;;;;;;;;;16.80;89.50;;;;;;5070427;28;19948;-87
2022/10/24 04:15:11;;;;;;;;;;;16.80;89.20;;;;;;5072402;28;20369;-87
2022/10/24 04:17:37;;;;;;;;;;;16.80;89.30;;;;;;5052571;28;19945;-87
2022/10/24 04:20:03;;;;;;;;;;;16.90;89.90;;;;;;5052544;28;20365;-87
2022/10/24 04:22:29;;;;;;;;;;;16.80;90.30;;;;;;5052571;28;19942;-87
2022/10/24 04:24:54;;;;;;;;;;;16.70;90.00;;;;;;5052165;28;19943;-87
2022/10/24 04:27:20;;;;;;;;;;;16.70;90.10;;;;;;5052315;28;19959;-86
2022/10/24 04:29:45;;;;;;;;;;;16.70;90.10;;;;;;5051946;28;19975;-87
2022/10/24 04:32:11;;;;;;;;;;;16.70;90.10;;;;;;5052247;28;19994;-88
2022/10/24 04:34:36;;;;;;;;;;;16.70;90.20;;;;;;5052643;28;19938;-88
2022/10/24 04:37:02;;;;;;;;;;;16.60;90.30;;;;;;5052749;28;19991;-88
2022/10/24 04:39:27;;;;;;;;;;;16.60;90.40;;;;;;5055124;28;19939;-88
2022/10/24 04:41:53;;;;;;;;;;;16.50;90.50;;;;;;5052648;28;19944;-88
2022/10/24 04:44:19;;;;;;;;;;;16.50;90.60;;;;;;5052639;28;19979;-88
2022/10/24 04:46:44;;;;;;;;;;;16.40;90.60;;;;;;5052540;28;20001;-88
2022/10/24 04:49:10;;;;;;;;;;;16.40;90.90;;;;;;5052676;28;19941;-88
2022/10/24 04:51:35;;;;;;;;;;;16.30;90.80;;;;;;5052371;28;20052;-87
2022/10/24 04:54:01;;;;;;;;;;;16.40;90.90;;;;;;5052491;28;19942;-88
2022/10/24 04:56:26;;;;;;;;;;;16.40;91.00;;;;;;5052480;28;19941;-87
2022/10/24 04:58:52;;;;;;;;;;;16.30;91.00;;;;;;5052179;28;19957;-87
2022/10/24 05:01:18;;;;;;;;;;;16.30;90.90;;;;;;5051908;28;19949;-87
2022/10/24 05:03:43;;;;;;;;;;;16.30;91.10;;;;;;5052071;28;19939;-87
2022/10/24 05:06:09;;;;;;;;;;;16.30;90.90;;;;;;5051909;28;19997;-87
2022/10/24 05:08:35;;;;;;;;;;;16.20;91.00;;;;;;5052221;28;19976;-87
2022/10/24 05:11:00;;;;;;;;;;;16.20;91.10;;;;;;5052275;28;19945;-87
2022/10/24 05:13:26;;;;;;;;;;;16.20;91.10;;;;;;5053503;28;19943;-87
2022/10/24 05:15:52;;;;;;;;;;;16.30;91.10;;;;;;5055989;28;19940;-87
2022/10/24 05:18:17;;;;;;;;;;;16.20;91.10;;;;;;5053904;28;20411;-87
2022/10/24 05:20:43;;;;;;;;;;;16.20;91.10;;;;;;5055751;28;20044;-87
2022/10/24 05:23:08;;;;;;;;;;;16.20;91.00;;;;;;5055786;28;19946;-87
2022/10/24 05:25:34;;;;;;;;;;;16.00;91.00;;;;;;5055403;28;19946;-87
2022/10/24 05:27:59;;;;;;;;;;;16.10;91.30;;;;;;5055322;28;19979;-87
2022/10/24 05:30:25;;;;;;;;;;;16.00;91.20;;;;;;5055502;28;19981;-87
2022/10/24 05:32:51;;;;;;;;;;;16.00;91.30;;;;;;5055553;28;19954;-87
2022/10/24 05:35:16;;;;;;;;;;;16.10;91.30;;;;;;5055054;28;20408;-87
2022/10/24 05:37:42;;;;;;;;;;;16.10;91.20;;;;;;5055562;28;19947;-87
2022/10/24 05:40:09;;;;;;;;;;;16.10;90.90;;;;;;5055650;28;19944;-87
2022/10/24 05:42:37;;;;;;;;;;;16.10;90.70;;;;;;5055105;28;19954;-87
2022/10/24 05:45:07;;;;;;;;;;;16.00;90.60;;;;;;5055014;28;20402;-87
2022/10/24 05:47:32;;;;;;;;;;;16.00;90.50;;;;;;5054733;28;20468;-87
2022/10/24 05:49:58;;;;;;;;;;;15.90;90.50;;;;;;5056234;28;19951;-87
2022/10/24 05:52:23;;;;;;;;;;;15.90;90.60;;;;;;5059205;28;19968;-87
2022/10/24 05:54:49;;;;;;;;;;;15.80;91.40;;;;;;5053413;28;19947;-87
2022/10/24 05:57:14;;;;;;;;;;;15.70;91.50;;;;;;5055086;28;20034;-87
2022/10/24 05:59:40;;;;;;;;;;;15.80;91.40;;;;;;5054378;28;20032;-87
2022/10/24 06:02:06;;;;;;;;;;;15.70;91.10;;;;;;5054746;28;20038;-87
2022/10/24 06:04:31;;;;;;;;;;;15.70;90.80;;;;;;5055099;28;19989;-87
2022/10/24 06:06:57;;;;;;;;;;;15.70;90.80;;;;;;5054154;28;19970;-87
2022/10/24 06:09:22;;;;;;;;;;;15.70;90.80;;;;;;5054525;28;19953;-87
2022/10/24 06:11:48;;;;;;;;;;;15.70;90.90;;;;;;5054909;28;19980;-87
2022/10/24 06:14:13;;;;;;;;;;;15.70;90.90;;;;;;5054824;28;19938;-87
2022/10/24 06:16:39;;;;;;;;;;;15.70;91.10;;;;;;5052486;28;19968;-87
2022/10/24 06:19:04;;;;;;;;;;;15.70;91.10;;;;;;5053779;28;20037;-87
2022/10/24 06:21:30;;;;;;;;;;;15.70;91.00;;;;;;5067802;28;19947;-87
2022/10/24 06:23:56;;;;;;;;;;;15.70;91.00;;;;;;5065100;28;19963;-87
2022/10/24 06:26:23;;;;;;;;;;;15.60;91.40;;;;;;5053346;28;20019;-87
2022/10/24 06:28:49;;;;;;;;;;;15.70;92.00;;;;;;5076419;22;19972;-87
2022/10/24 06:31:14;;;;;;;;;;;15.70;92.40;;;;;;5096835;28;19942;-87
2022/10/24 06:33:40;;;;;;;;;;;15.70;92.20;;;;;;5102150;28;19954;-87
2022/10/24 06:36:08;;;;;;;;;;;15.70;92.20;;;;;;5073311;28;20192;-88
2022/10/24 06:38:34;;;;;;;;;;;15.80;92.20;;;;;;5074361;28;19938;-87
2022/10/24 06:41:09;;;;;;;;;;;15.80;91.90;;;;;;5080780;28;19950;-87
2022/10/24 06:43:36;;;;;;;;;;;15.70;92.00;;;;;;5077485;28;19945;-87
2022/10/24 06:46:06;;;;;;;;;;;15.70;92.10;;;;;;5087261;28;19954;-87
2022/10/24 06:48:32;;;;;;;;;;;15.70;92.20;;;;;;5070379;28;19948;-87
2022/10/24 06:50:58;;;;;;;;;;;15.70;92.40;;;;;;5072449;28;19962;-87
2022/10/24 06:53:23;;;;;;;;;;;15.80;92.50;;;;;;5074206;28;19974;-87
2022/10/24 06:55:49;;;;;;;;;;;15.80;92.60;;;;;;5071136;28;20312;-87
2022/10/24 06:58:14;;;;;;;;;;;15.90;92.70;;;;;;5079105;28;19954;-87
2022/10/24 07:00:40;;;;;;;;;;;16.00;92.70;;;;;;5073827;28;20526;-87
2022/10/24 07:03:05;;;;;;;;;;;16.10;92.70;;;;;;5076666;28;19954;-88
2022/10/24 07:05:31;;;;;;;;;;;16.20;92.60;;;;;;5066488;28;20300;-87
2022/10/24 07:07:56;;;;;;;;;;;16.20;92.50;;;;;;5073656;28;19961;-87
2022/10/24 07:10:22;;;;;;;;;;;16.30;92.40;;;;;;5073265;28;20360;-87
2022/10/24 07:12:47;;;;;;;;;;;16.40;92.40;;;;;;5073078;28;19947;-87
2022/10/24 07:15:13;;;;;;;;;;;16.40;92.30;;;;;;5073722;28;19947;-87
2022/10/24 07:17:40;;;;;;;;;;;16.50;92.20;;;;;;5073553;28;19940;-87
2022/10/24 07:20:05;;;;;;;;;;;16.50;92.00;;;;;;5073271;28;19938;-87
2022/10/24 07:22:31;;;;;;;;;;;16.60;91.60;;;;;;5073172;28;20003;-87
2022/10/24 07:24:56;;;;;;;;;;;16.70;91.10;;;;;;5073467;28;20476;-87
2022/10/24 07:27:22;;;;;;;;;;;16.80;90.90;;;;;;5073307;28;20404;-87
2022/10/24 07:29:48;;;;;;;;;;;16.80;90.70;;;;;;5072658;28;20354;-87
2022/10/24 07:32:14;;;;;;;;;;;16.90;90.80;;;;;;5072737;28;19979;-87
2022/10/24 07:34:40;;;;;;;;;;;16.90;90.60;;;;;;5072833;28;19991;-87
2022/10/24 07:37:05;;;;;;;;;;;16.90;90.40;;;;;;5072095;28;19949;-87
2022/10/24 07:39:31;;;;;;;;;;;16.90;90.30;;;;;;5073380;28;20313;-87
2022/10/24 07:41:57;;;;;;;;;;;17.10;90.20;;;;;;5073034;28;19974;-87
2022/10/24 07:44:22;;;;;;;;;;;17.10;90.20;;;;;;5073344;28;19942;-87
2022/10/24 07:46:48;;;;;;;;;;;17.10;90.40;;;;;;5073195;28;20330;-88
2022/10/24 07:49:13;;;;;;;;;;;17.20;90.40;;;;;;5073198;28;19936;-87
2022/10/24 07:51:40;;;;;;;;;;;17.20;90.40;;;;;;5072881;28;20065;-88
2022/10/24 07:54:05;;;;;;;;;;;17.30;90.20;;;;;;5072878;28;20103;-87
2022/10/24 07:56:31;;;;;;;;;;;17.30;90.00;;;;;;5073129;28;20424;-88
2022/10/24 07:58:57;;;;;;;;;;;17.40;90.00;;;;;;5073085;28;20016;-87
2022/10/24 08:01:24;;;;;;;;;;;17.50;90.60;;;;;;5072763;28;19953;-88
2022/10/24 08:03:49;;;;;;;;;;;17.50;91.00;;;;;;5072497;28;19969;-88
2022/10/24 08:06:19;;;;;;;;;;;17.60;91.10;;;;;;5072969;28;19936;-87
2022/10/24 08:08:45;;;;;;;;;;;17.70;91.20;;;;;;5073018;28;19944;-87
2022/10/24 08:11:15;;;;;;;;;;;17.90;91.10;;;;;;5072776;28;19956;-88
2022/10/24 08:13:41;;;;;;;;;;;18.00;90.40;;;;;;5073069;28;20391;-88
2022/10/24 08:16:07;;;;;;;;;;;18.10;89.20;;;;;;5072211;28;19948;-88
2022/10/24 08:18:33;;;;;;;;;;;18.30;88.50;;;;;;5071889;28;19956;-88
2022/10/24 08:20:59;;;;;;;;;;;18.30;88.20;;;;;;5072494;28;19953;-88
2022/10/24 08:23:25;;;;;;;;;;;18.40;88.10;;;;;;5072702;28;20409;-88
2022/10/24 08:25:50;;;;;;;;;;;18.50;88.50;;;;;;5072705;28;19939;-88
2022/10/24 08:28:16;;;;;;;;;;;18.60;88.90;;;;;;5072678;28;20058;-88
2022/10/24 08:30:41;;;;;;;;;;;18.80;88.90;;;;;;5072618;28;20046;-88
2022/10/24 08:33:07;;;;;;;;;;;18.90;88.90;;;;;;5072803;28;19950;-88
2022/10/24 08:35:32;;;;;;;;;;;19.00;88.70;;;;;;5072770;28;19963;-88
2022/10/24 08:38:00;;;;;;;;;;;19.10;88.30;;;;;;5076939;28;20403;-88
2022/10/24 08:40:26;;;;;;;;;;;19.20;87.90;;;;;;5075986;28;20003;-88
2022/10/24 08:42:52;;;;;;;;;;;19.20;87.90;;;;;;5072803;28;19940;-88
2022/10/24 08:45:25;;;;;;;;;;;19.30;88.00;;;;;;5081337;28;19943;-88
2022/10/24 08:47:59;;;;;;;;;;;19.30;88.10;;;;;;5074930;28;20081;-87
2022/10/24 08:50:32;;;;;;;;;;;19.50;88.10;;;;;;5078480;28;19953;-88
2022/10/24 08:53:18;;;;;;;;;;;19.60;87.80;;;;;;5075924;28;20433;-87
2022/10/24 08:55:48;;;;;;;;;;;19.70;87.50;;;;;;5075688;28;19948;-87
2022/10/24 08:58:16;;;;;;;;;;;19.80;86.90;;;;;;5075467;28;19958;-88
2022/10/24 09:00:42;;;;;;;;;;;20.00;86.30;;;;;;5087546;28;19945;-88
2022/10/24 09:03:27;;;;;;;;;;;20.30;85.70;;;;;;5096465;28;19939;-88
2022/10/24 09:05:54;;;;;;;;;;;20.30;85.60;;;;;;5056169;28;19942;-88
2022/10/24 09:08:23;;;;;;;;;;;20.50;85.50;;;;;;5056064;28;19992;-88
2022/10/24 09:10:53;;;;;;;;;;;20.70;85.30;;;;;;5056127;28;19940;-88
2022/10/24 09:13:22;;;;;;;;;;;20.80;85.00;;;;;;5056280;28;20034;-88
2022/10/24 09:15:48;;;;;;;;;;;20.90;84.90;;;;;;5059794;28;19942;-88
2022/10/24 09:18:19;;;;;;;;;;;21.00;84.80;;;;;;5096200;28;19942;-88
2022/10/24 09:20:46;;;;;;;;;;;21.10;84.20;;;;;;5096171;28;20397;-88
2022/10/24 09:23:13;;;;;;;;;;;21.10;84.10;;;;;;5096144;28;19939;-88
2022/10/24 09:25:40;;;;;;;;;;;21.10;84.40;;;;;;5096115;28;20451;-88
2022/10/24 09:28:06;;;;;;;;;;;21.20;84.70;;;;;;5095816;28;19964;-88
2022/10/24 09:30:32;;;;;;;;;;;21.20;84.80;;;;;;5096029;28;20321;-88
2022/10/24 09:33:01;;;;;;;;;;;21.20;84.90;;;;;;5095942;28;19948;-88
2022/10/24 09:35:28;;;;;;;;;;;21.10;85.30;;;;;;5094724;28;19940;-87
2022/10/24 09:37:55;;;;;;;;;;;21.10;85.20;;;;;;5076365;28;19949;-88
2022/10/24 09:40:29;;;;;;;;;;;21.10;85.40;;;;;;5075409;28;19950;-88
2022/10/24 09:43:06;;;;;;;;;;;21.10;85.80;;;;;;5075269;28;19938;-88
2022/10/24 09:45:42;;;;;;;;;;;21.10;85.70;;;;;;5075258;28;19956;-88
2022/10/24 09:48:26;;;;;;;;;;;21.10;85.70;;;;;;5075168;28;19963;-88
2022/10/24 09:50:52;;;;;;;;;;;21.10;85.40;;;;;;5075065;28;19965;-88
2022/10/24 09:53:21;;;;;;;;;;;21.10;85.40;;;;;;5074961;28;19949;-88
2022/10/24 09:55:49;;;;;;;;;;;21.20;85.50;;;;;;5074759;28;20397;-88
2022/10/24 09:58:19;;;;;;;;;;;21.20;85.40;;;;;;5074802;28;19957;-88
2022/10/24 10:00:54;;;;;;;;;;;21.30;85.50;;;;;;5073979;28;19944;-88
2022/10/24 10:03:21;;;;;;;;;;;21.20;85.80;;;;;;5073714;28;19948;-88
2022/10/24 10:05:48;;;;;;;;;;;21.20;85.80;;;;;;5074904;28;19944;-88
2022/10/24 10:08:30;;;;;;;;;;;21.30;85.70;;;;;;5074760;28;20011;-88
2022/10/24 10:11:06;;;;;;;;;;;21.30;85.40;;;;;;5074847;28;19953;-88
2022/10/24 10:13:49;;;;;;;;;;;21.40;85.20;;;;;;5065337;28;19941;-88
2022/10/24 10:16:22;;;;;;;;;;;21.40;85.20;;;;;;5095134;28;19938;-88
2022/10/24 10:18:48;;;;;;;;;;;21.40;85.40;;;;;;5079959;28;20030;-87
2022/10/24 10:21:18;;;;;;;;;;;21.50;85.60;;;;;;5073493;28;20358;-87
2022/10/24 10:23:43;;;;;;;;;;;21.60;85.20;;;;;;5071976;28;19951;-88
2022/10/24 10:26:12;;;;;;;;;;;21.60;84.90;;;;;;5074413;28;20321;-88
2022/10/24 10:29:01;;;;;;;;;;;21.80;84.50;;;;;;5074037;28;19966;-87
2022/10/24 10:31:33;;;;;;;;;;;21.90;83.40;;;;;;5071254;28;19954;-87
2022/10/24 10:34:17;;;;;;;;;;;22.10;82.60;;;;;;5074268;28;20071;-88
2022/10/24 10:36:51;;;;;;;;;;;22.20;81.60;;;;;;5074141;28;19997;-88
2022/10/24 10:39:16;;;;;;;;;;;22.30;81.50;;;;;;5074185;28;20353;-88
2022/10/24 10:41:45;;;;;;;;;;;22.50;81.90;;;;;;5074043;28;19945;-88
2022/10/24 10:44:28;;;;;;;;;;;22.70;80.60;;;;;;5073646;28;19953;-88
2022/10/24 10:47:09;;;;;;;;;;;22.80;80.10;;;;;;5073698;28;20026;-88
2022/10/24 10:49:38;;;;;;;;;;;22.80;79.90;;;;;;5074210;28;19990;-88
2022/10/24 10:52:23;;;;;;;;;;;22.80;80.30;;;;;;5073672;28;20316;-88
2022/10/24 10:54:54;;;;;;;;;;;22.80;80.50;;;;;;5073717;28;19948;-88
2022/10/24 10:57:21;;;;;;;;;;;22.90;79.90;;;;;;5073488;28;20003;-88
2022/10/24 11:00:06;;;;;;;;;;;23.00;79.30;;;;;;5073922;28;20160;-88
2022/10/24 11:02:50;;;;;;;;;;;23.00;79.10;;;;;;5074084;28;19947;-88
2022/10/24 11:05:19;;;;;;;;;;;23.20;78.70;;;;;;5072672;28;20027;-88
2022/10/24 11:07:44;;;;;;;;;;;23.30;77.80;;;;;;5073712;28;20026;-88
2022/10/24 11:10:12;;;;;;;;;;;23.40;77.60;;;;;;5073304;28;20396;-89
2022/10/24 11:12:39;;;;;;;;;;;23.50;77.40;;;;;;5073338;28;19957;-88
2022/10/24 11:15:13;;;;;;;;;;;23.60;77.10;;;;;;5073556;28;20413;-88
2022/10/24 11:17:41;;;;;;;;;;;23.60;76.50;;;;;;5072916;28;19950;-88
2022/10/24 11:20:14;;;;;;;;;;;23.50;76.90;;;;;;5073457;28;19943;-88
2022/10/24 11:22:47;;;;;;;;;;;23.60;77.30;;;;;;5082117;28;19947;-88
2022/10/24 11:25:24;;;;;;;;;;;23.80;75.50;;;;;;5093896;28;19988;-88
2022/10/24 11:28:07;;;;;;;;;;;24.00;74.00;;;;;;5075962;28;19953;-88
2022/10/24 11:31:02;;;;;;;;;;;24.10;74.80;;;;;;5073327;28;19978;-88
2022/10/24 11:33:31;;;;;;;;;;;24.30;73.60;;;;;;5068571;28;20017;-88
2022/10/24 11:36:19;;;;;;;;;;;24.50;72.20;;;;;;5073168;28;20404;-88
2022/10/24 11:38:48;;;;;;;;;;;24.50;72.10;;;;;;5065114;28;20227;-88
2022/10/24 11:41:46;;;;;;;;;;;24.80;72.20;;;;;;5073235;28;19984;-89
2022/10/24 11:44:20;;;;;;;;;;;25.20;70.80;;;;;;5060981;28;19942;-88
2022/10/24 11:46:49;;;;;;;;;;;25.70;68.30;;;;;;5072910;28;19961;-88
2022/10/24 11:49:19;;;;;;;;;;;26.10;66.50;;;;;;5073413;28;19952;-88
2022/10/24 11:51:50;;;;;;;;;;;26.40;66.00;;;;;;5073019;28;20444;-88
2022/10/24 11:54:16;;;;;;;;;;;26.50;65.80;;;;;;5073217;28;19948;-88
2022/10/24 11:56:50;;;;;;;;;;;26.80;64.80;;;;;;5073051;28;19944;-88
2022/10/24 11:59:18;;;;;;;;;;;27.30;62.90;;;;;;5053116;28;19941;-88
2022/10/24 12:01:46;;;;;;;;;;;27.60;62.80;;;;;;5053396;28;19956;-88
2022/10/24 12:04:23;;;;;;;;;;;27.40;61.60;;;;;;5053048;28;20422;-88
2022/10/24 12:06:59;;;;;;;;;;;27.40;62.10;;;;;;5053622;28;19960;-88
2022/10/24 12:09:32;;;;;;;;;;;27.40;62.00;;;;;;5073088;28;19941;-88
2022/10/24 12:12:06;;;;;;;;;;;27.30;63.50;;;;;;5073051;28;19963;-88
2022/10/24 12:14:54;;;;;;;;;;;27.10;62.90;;;;;;5071715;28;19940;-88
2022/10/24 12:17:38;;;;;;;;;;;26.30;63.80;;;;;;5073036;28;19953;-88
2022/10/24 12:20:05;;;;;;;;;;;25.80;66.30;;;;;;5073001;28;19947;-88
2022/10/24 12:22:35;;;;;;;;;;;25.80;66.10;;;;;;5072928;28;19990;-88
2022/10/24 12:25:03;;;;;;;;;;;25.80;67.30;;;;;;5076618;28;20004;-88
2022/10/24 12:27:31;;;;;;;;;;;25.80;66.20;;;;;;5076842;28;20297;-88
2022/10/24 12:30:14;;;;;;;;;;;26.30;64.40;;;;;;5076749;28;20012;-88
2022/10/24 12:32:44;;;;;;;;;;;26.70;63.60;;;;;;5076809;28;19938;-88
2022/10/24 12:35:32;;;;;;;;;;;27.10;62.90;;;;;;5076802;28;19950;-88
2022/10/24 12:37:59;;;;;;;;;;;27.70;62.20;;;;;;5076421;28;20314;-88
2022/10/24 12:40:43;;;;;;;;;;;28.20;60.50;;;;;;5076799;28;20400;-88
2022/10/24 12:43:26;;;;;;;;;;;28.90;57.60;;;;;;5076684;28;19939;-88
2022/10/24 12:45:51;;;;;;;;;;;28.60;57.80;;;;;;5076597;28;19968;-88
2022/10/24 12:48:30;;;;;;;;;;;28.30;58.30;;;;;;5076500;28;20010;-88
2022/10/24 12:51:03;;;;;;;;;;;28.10;59.40;;;;;;5076149;28;20048;-88
2022/10/24 12:53:30;;;;;;;;;;;28.00;59.60;;;;;;5076382;28;19989;-88
2022/10/24 12:55:58;;;;;;;;;;;27.30;61.20;;;;;;5076677;28;19939;-88
2022/10/24 12:58:24;;;;;;;;;;;27.10;62.60;;;;;;5076367;28;19942;-88
2022/10/24 13:00:57;;;;;;;;;;;27.30;61.70;;;;;;5076063;28;20466;-88
2022/10/24 13:03:29;;;;;;;;;;;27.50;61.20;;;;;;5076231;28;20388;-88
2022/10/24 13:06:03;;;;;;;;;;;27.20;60.50;;;;;;5076209;28;19954;-88
2022/10/24 13:08:41;;;;;;;;;;;27.50;60.00;;;;;;5076170;28;19953;-88
2022/10/24 13:11:13;;;;;;;;;;;27.70;60.20;;;;;;5075805;28;19991;-88
2022/10/24 13:13:46;;;;;;;;;;;27.90;60.30;;;;;;5076109;28;20384;-88
2022/10/24 13:16:19;;;;;;;;;;;28.30;57.90;;;;;;5074810;28;20017;-88
2022/10/24 13:19:02;;;;;;;;;;;28.60;57.00;;;;;;5075996;28;19988;-88
2022/10/24 13:21:33;;;;;;;;;;;28.90;56.10;;;;;;5075543;28;20395;-88
2022/10/24 13:24:14;;;;;;;;;;;29.20;55.20;;;;;;5075926;28;19989;-88
2022/10/24 13:26:41;;;;;;;;;;;29.50;54.50;;;;;;5075804;28;20414;-88
2022/10/24 13:29:13;;;;;;;;;;;29.70;54.20;;;;;;5075469;28;19978;-88
2022/10/24 13:31:40;;;;;;;;;;;29.60;54.30;;;;;;5075784;28;19958;-89
2022/10/24 13:34:24;;;;;;;;;;;29.80;53.50;;;;;;5075686;28;20026;-88
2022/10/24 13:36:51;;;;;;;;;;;29.70;53.60;;;;;;5075953;28;19978;-88
2022/10/24 13:39:20;;;;;;;;;;;30.10;53.00;;;;;;5075387;28;19948;-88
2022/10/24 13:41:48;;;;;;;;;;;30.20;52.30;;;;;;5075603;28;20396;-88
2022/10/24 13:44:20;;;;;;;;;;;29.80;53.90;;;;;;5075559;28;19995;-88
2022/10/24 13:46:55;;;;;;;;;;;29.10;54.60;;;;;;5075366;28;20301;-88
2022/10/24 13:49:31;;;;;;;;;;;28.60;56.60;;;;;;5075270;28;20396;-88
2022/10/24 13:52:01;;;;;;;;;;;27.90;58.40;;;;;;5074500;28;20019;-88
2022/10/24 13:54:28;;;;;;;;;;;27.40;59.80;;;;;;5075370;28;20433;-89
2022/10/24 13:56:54;;;;;;;;;;;27.20;60.50;;;;;;5075564;28;19954;-88
2022/10/24 13:59:33;;;;;;;;;;;26.80;62.90;;;;;;5075288;28;19964;-88
2022/10/24 14:02:05;;;;;;;;;;;26.40;63.50;;;;;;5074944;28;19957;-88
2022/10/24 14:04:31;;;;;;;;;;;26.50;63.40;;;;;;5075195;28;20390;-88
2022/10/24 14:07:01;;;;;;;;;;;26.70;62.80;;;;;;5075100;28;20420;-88
2022/10/24 14:09:26;;;;;;;;;;;26.60;62.80;;;;;;5075271;28;19995;-88
2022/10/24 14:11:55;;;;;;;;;;;26.40;63.70;;;;;;5074631;28;19951;-88
2022/10/24 14:14:26;;;;;;;;;;;26.50;63.40;;;;;;5075034;28;20303;-88
2022/10/24 14:17:16;;;;;;;;;;;26.70;62.10;;;;;;5074946;28;19951;-88
2022/10/24 14:19:52;;;;;;;;;;;27.20;60.70;;;;;;5074568;28;19967;-88
2022/10/24 14:22:19;;;;;;;;;;;27.50;60.30;;;;;;5074401;28;19942;-88
2022/10/24 14:24:45;;;;;;;;;;;27.50;59.60;;;;;;5074739;28;19942;-88
2022/10/24 14:27:11;;;;;;;;;;;27.60;59.90;;;;;;5074603;28;20047;-88